FYKT/KMP METAR and TAF weather

Enter ICAO airport designator
Station Type Date Time Source
FYKT METAR 2018/01/19 15:00 UTC NOAA

FYKT 191500Z 00000KT 9999 FEW050TCU 39/01 Q1012


Station Type Date Time Source
FYKT Decoded METAR 2018/01/19 15:00 UTC NOAA

Keetmanshoop, Namibia (FYKT) 26-32S 018-07E 1100M
Jan 19, 2018 - 10:00 AM EST / 2018.01.19 1500 UTC
Wind: Calm:0
Visibility: greater than 7 mile(s):0
Sky conditions: mostly clear
Weather: Towering cumulus clouds observed
Temperature: 102 F (39 C)
Dew Point: 33 F (1 C)
Relative Humidity: 9%
Pressure (altimeter): 29.88 in. Hg (1012 hPa)
ob: FYKT 191500Z 00000KT 9999 FEW050TCU 39/01 Q1012
cycle: 15

Station Type Date Time Source
FYKT TAF 2018/01/19 18:00 UTC NOAA

TAF FYKT 191600Z 1918/2024 00000KT 9999 SCT050TCU PROB30
TEMPO 1919/1924 20014KT -TSRA FEW040CB BKN090
BECMG 2004/2006 23004KT 9999 NSW NSC


Example: see airport list